sensor_id;sensor_type;location;lat;lon;timestamp;temperature;humidity
10263;DHT22;5177;50.068;8.156;2023-03-26T00:01:01;9.20;99.90
10263;DHT22;5177;50.068;8.156;2023-03-26T00:03:33;9.20;99.90
10263;DHT22;5177;50.068;8.156;2023-03-26T00:06:00;9.20;99.90
10263;DHT22;5177;50.068;8.156;2023-03-26T00:08:27;9.10;99.90
10263;DHT22;5177;50.068;8.156;2023-03-26T00:10:52;9.20;99.90
10263;DHT22;5177;50.068;8.156;2023-03-26T00:13:18;9.00;99.90
10263;DHT22;5177;50.068;8.156;2023-03-26T00:15:43;8.90;99.90
10263;DHT22;5177;50.068;8.156;2023-03-26T00:18:09;8.90;99.90
10263;DHT22;5177;50.068;8.156;2023-03-26T00:20:34;8.90;99.90
10263;DHT22;5177;50.068;8.156;2023-03-26T00:23:00;8.80;99.90
10263;DHT22;5177;50.068;8.156;2023-03-26T00:25:26;8.80;99.90
10263;DHT22;5177;50.068;8.156;2023-03-26T00:27:51;8.70;99.90
10263;DHT22;5177;50.068;8.156;2023-03-26T00:30:17;8.70;99.90
10263;DHT22;5177;50.068;8.156;2023-03-26T00:32:43;8.70;99.90
10263;DHT22;5177;50.068;8.156;2023-03-26T00:35:08;8.70;99.90
10263;DHT22;5177;50.068;8.156;2023-03-26T00:37:35;8.70;99.90
10263;DHT22;5177;50.068;8.156;2023-03-26T00:40:00;8.60;99.90
10263;DHT22;5177;50.068;8.156;2023-03-26T00:42:32;8.60;99.90
10263;DHT22;5177;50.068;8.156;2023-03-26T00:44:58;8.60;99.90
10263;DHT22;5177;50.068;8.156;2023-03-26T00:47:25;8.50;99.90
10263;DHT22;5177;50.068;8.156;2023-03-26T00:49:51;8.50;99.90
10263;DHT22;5177;50.068;8.156;2023-03-26T00:52:16;8.50;99.90
10263;DHT22;5177;50.068;8.156;2023-03-26T00:54:43;8.50;99.90
10263;DHT22;5177;50.068;8.156;2023-03-26T00:57:09;8.50;99.90
10263;DHT22;5177;50.068;8.156;2023-03-26T00:59:36;8.50;99.90
10263;DHT22;5177;50.068;8.156;2023-03-26T01:02:02;8.60;99.90
10263;DHT22;5177;50.068;8.156;2023-03-26T01:04:30;8.50;99.90
10263;DHT22;5177;50.068;8.156;2023-03-26T01:06:56;8.50;99.90
10263;DHT22;5177;50.068;8.156;2023-03-26T01:09:29;8.50;99.90
10263;DHT22;5177;50.068;8.156;2023-03-26T01:11:58;8.40;99.90
10263;DHT22;5177;50.068;8.156;2023-03-26T01:14:23;8.40;99.90
10263;DHT22;5177;50.068;8.156;2023-03-26T01:16:53;8.40;99.90
10263;DHT22;5177;50.068;8.156;2023-03-26T01:21:45;8.50;99.90
10263;DHT22;5177;50.068;8.156;2023-03-26T01:24:11;8.50;99.90
10263;DHT22;5177;50.068;8.156;2023-03-26T01:29:03;8.50;99.90
10263;DHT22;5177;50.068;8.156;2023-03-26T01:31:36;8.50;99.90
10263;DHT22;5177;50.068;8.156;2023-03-26T01:39:09;8.50;99.90
10263;DHT22;5177;50.068;8.156;2023-03-26T01:42:17;8.50;99.90
10263;DHT22;5177;50.068;8.156;2023-03-26T01:47:30;8.50;99.90
10263;DHT22;5177;50.068;8.156;2023-03-26T01:49:56;8.40;99.90
10263;DHT22;5177;50.068;8.156;2023-03-26T01:52:22;8.50;99.90
10263;DHT22;5177;50.068;8.156;2023-03-26T01:54:50;8.50;99.90
10263;DHT22;5177;50.068;8.156;2023-03-26T02:00:31;8.50;99.90
10263;DHT22;5177;50.068;8.156;2023-03-26T02:08:11;8.60;99.90
10263;DHT22;5177;50.068;8.156;2023-03-26T02:10:41;8.50;99.90
10263;DHT22;5177;50.068;8.156;2023-03-26T02:13:09;8.60;99.90
10263;DHT22;5177;50.068;8.156;2023-03-26T02:15:35;8.60;99.90
10263;DHT22;5177;50.068;8.156;2023-03-26T02:18:01;8.60;99.90
10263;DHT22;5177;50.068;8.156;2023-03-26T02:20:28;8.60;99.90
10263;DHT22;5177;50.068;8.156;2023-03-26T02:22:54;8.60;99.90
10263;DHT22;5177;50.068;8.156;2023-03-26T02:25:20;8.70;99.90
10263;DHT22;5177;50.068;8.156;2023-03-26T02:27:46;8.70;99.90
10263;DHT22;5177;50.068;8.156;2023-03-26T02:30:14;8.70;99.90
10263;DHT22;5177;50.068;8.156;2023-03-26T02:32:40;8.70;99.90
10263;DHT22;5177;50.068;8.156;2023-03-26T02:35:08;8.70;99.90
10263;DHT22;5177;50.068;8.156;2023-03-26T02:37:34;8.60;99.90
10263;DHT22;5177;50.068;8.156;2023-03-26T02:39:59;8.60;99.90
10263;DHT22;5177;50.068;8.156;2023-03-26T02:42:25;8.60;99.90
10263;DHT22;5177;50.068;8.156;2023-03-26T02:44:50;8.60;99.90
10263;DHT22;5177;50.068;8.156;2023-03-26T02:47:16;8.70;99.90
10263;DHT22;5177;50.068;8.156;2023-03-26T02:49:42;8.60;99.90
10263;DHT22;5177;50.068;8.156;2023-03-26T02:52:07;8.60;99.90
10263;DHT22;5177;50.068;8.156;2023-03-26T02:54:33;8.60;99.90
10263;DHT22;5177;50.068;8.156;2023-03-26T02:56:59;8.70;99.90
10263;DHT22;5177;50.068;8.156;2023-03-26T02:59:25;8.60;99.90
10263;DHT22;5177;50.068;8.156;2023-03-26T03:01:51;8.60;99.90
10263;DHT22;5177;50.068;8.156;2023-03-26T03:04:16;8.60;99.90
10263;DHT22;5177;50.068;8.156;2023-03-26T03:06:42;8.60;99.90
10263;DHT22;5177;50.068;8.156;2023-03-26T03:09:09;8.80;99.90
10263;DHT22;5177;50.068;8.156;2023-03-26T03:14:41;8.60;99.90
10263;DHT22;5177;50.068;8.156;2023-03-26T03:17:06;8.70;99.90
10263;DHT22;5177;50.068;8.156;2023-03-26T03:19:32;8.70;99.90
10263;DHT22;5177;50.068;8.156;2023-03-26T03:21:57;8.70;99.90
10263;DHT22;5177;50.068;8.156;2023-03-26T03:24:23;8.70;99.90
10263;DHT22;5177;50.068;8.156;2023-03-26T03:26:53;8.70;99.90
10263;DHT22;5177;50.068;8.156;2023-03-26T03:29:21;8.70;99.90
10263;DHT22;5177;50.068;8.156;2023-03-26T03:31:46;8.80;99.90
10263;DHT22;5177;50.068;8.156;2023-03-26T03:34:12;8.70;99.90
10263;DHT22;5177;50.068;8.156;2023-03-26T03:36:37;8.80;99.90
10263;DHT22;5177;50.068;8.156;2023-03-26T03:39:03;8.80;99.90
10263;DHT22;5177;50.068;8.156;2023-03-26T03:41:29;8.80;99.90
10263;DHT22;5177;50.068;8.156;2023-03-26T03:43:54;8.80;99.90
10263;DHT22;5177;50.068;8.156;2023-03-26T03:46:20;8.80;99.90
10263;DHT22;5177;50.068;8.156;2023-03-26T03:48:45;8.80;99.90
10263;DHT22;5177;50.068;8.156;2023-03-26T03:51:15;8.90;99.90
10263;DHT22;5177;50.068;8.156;2023-03-26T03:53:40;8.80;99.90
10263;DHT22;5177;50.068;8.156;2023-03-26T03:56:06;8.80;99.90
10263;DHT22;5177;50.068;8.156;2023-03-26T03:58:34;8.80;99.90
10263;DHT22;5177;50.068;8.156;2023-03-26T04:00:59;8.80;99.90
10263;DHT22;5177;50.068;8.156;2023-03-26T04:03:27;8.80;99.90
10263;DHT22;5177;50.068;8.156;2023-03-26T04:05:52;8.80;99.90
10263;DHT22;5177;50.068;8.156;2023-03-26T04:08:20;8.80;99.90
10263;DHT22;5177;50.068;8.156;2023-03-26T04:10:45;8.90;99.90
10263;DHT22;5177;50.068;8.156;2023-03-26T04:13:11;8.80;99.90
10263;DHT22;5177;50.068;8.156;2023-03-26T04:15:37;8.70;99.90
10263;DHT22;5177;50.068;8.156;2023-03-26T04:18:03;8.70;99.90
10263;DHT22;5177;50.068;8.156;2023-03-26T04:20:28;8.70;99.90
10263;DHT22;5177;50.068;8.156;2023-03-26T04:22:54;8.70;99.90
10263;DHT22;5177;50.068;8.156;2023-03-26T04:25:19;8.60;99.90
10263;DHT22;5177;50.068;8.156;2023-03-26T04:27:45;8.60;99.90
10263;DHT22;5177;50.068;8.156;2023-03-26T04:30:15;8.60;99.90
10263;DHT22;5177;50.068;8.156;2023-03-26T04:32:44;8.60;99.90
10263;DHT22;5177;50.068;8.156;2023-03-26T04:35:11;8.60;99.90
10263;DHT22;5177;50.068;8.156;2023-03-26T04:37:38;8.50;99.90
10263;DHT22;5177;50.068;8.156;2023-03-26T04:40:05;8.50;99.90
10263;DHT22;5177;50.068;8.156;2023-03-26T04:42:33;8.50;99.90
10263;DHT22;5177;50.068;8.156;2023-03-26T04:44:59;8.40;99.90
10263;DHT22;5177;50.068;8.156;2023-03-26T04:47:27;8.40;99.90
10263;DHT22;5177;50.068;8.156;2023-03-26T04:49:53;8.40;99.90
10263;DHT22;5177;50.068;8.156;2023-03-26T04:52:18;8.40;99.90
10263;DHT22;5177;50.068;8.156;2023-03-26T04:54:44;8.40;99.90
10263;DHT22;5177;50.068;8.156;2023-03-26T04:57:29;8.40;99.90
10263;DHT22;5177;50.068;8.156;2023-03-26T04:59:57;8.30;99.90
10263;DHT22;5177;50.068;8.156;2023-03-26T05:02:22;8.20;99.90
10263;DHT22;5177;50.068;8.156;2023-03-26T05:04:49;8.30;99.90
10263;DHT22;5177;50.068;8.156;2023-03-26T05:07:18;8.30;99.90
10263;DHT22;5177;50.068;8.156;2023-03-26T05:09:44;8.20;99.90
10263;DHT22;5177;50.068;8.156;2023-03-26T05:12:09;8.10;99.90
10263;DHT22;5177;50.068;8.156;2023-03-26T05:14:35;8.00;99.90
10263;DHT22;5177;50.068;8.156;2023-03-26T05:17:01;8.10;99.90
10263;DHT22;5177;50.068;8.156;2023-03-26T05:19:30;8.10;99.90
10263;DHT22;5177;50.068;8.156;2023-03-26T05:21:56;8.20;99.90
10263;DHT22;5177;50.068;8.156;2023-03-26T05:24:21;8.10;99.90
10263;DHT22;5177;50.068;8.156;2023-03-26T05:26:51;8.10;99.90
10263;DHT22;5177;50.068;8.156;2023-03-26T05:29:17;8.10;99.90
10263;DHT22;5177;50.068;8.156;2023-03-26T05:31:42;8.10;99.90
10263;DHT22;5177;50.068;8.156;2023-03-26T05:34:08;8.10;99.90
10263;DHT22;5177;50.068;8.156;2023-03-26T05:36:34;8.10;99.90
10263;DHT22;5177;50.068;8.156;2023-03-26T05:38:59;8.10;99.90
10263;DHT22;5177;50.068;8.156;2023-03-26T05:41:25;8.10;99.90
10263;DHT22;5177;50.068;8.156;2023-03-26T05:43:50;8.10;99.90
10263;DHT22;5177;50.068;8.156;2023-03-26T05:46:16;8.10;99.90
10263;DHT22;5177;50.068;8.156;2023-03-26T05:48:42;8.10;99.90
10263;DHT22;5177;50.068;8.156;2023-03-26T05:51:07;8.10;99.90
10263;DHT22;5177;50.068;8.156;2023-03-26T05:56:36;8.10;99.90
10263;DHT22;5177;50.068;8.156;2023-03-26T05:59:02;8.10;99.90
10263;DHT22;5177;50.068;8.156;2023-03-26T06:01:27;8.10;99.90
10263;DHT22;5177;50.068;8.156;2023-03-26T06:03:53;8.10;99.90
10263;DHT22;5177;50.068;8.156;2023-03-26T06:06:19;8.20;99.90
10263;DHT22;5177;50.068;8.156;2023-03-26T06:08:46;8.10;99.90
10263;DHT22;5177;50.068;8.156;2023-03-26T06:11:13;8.10;99.90
10263;DHT22;5177;50.068;8.156;2023-03-26T06:13:39;8.10;99.90
10263;DHT22;5177;50.068;8.156;2023-03-26T06:16:04;8.10;99.90
10263;DHT22;5177;50.068;8.156;2023-03-26T06:18:30;8.10;99.90
10263;DHT22;5177;50.068;8.156;2023-03-26T06:20:56;8.10;99.90
10263;DHT22;5177;50.068;8.156;2023-03-26T06:23:21;8.10;99.90
10263;DHT22;5177;50.068;8.156;2023-03-26T06:25:47;8.10;99.90
10263;DHT22;5177;50.068;8.156;2023-03-26T06:28:13;8.10;99.90
10263;DHT22;5177;50.068;8.156;2023-03-26T06:30:39;8.10;99.90
10263;DHT22;5177;50.068;8.156;2023-03-26T06:33:04;8.10;99.90
10263;DHT22;5177;50.068;8.156;2023-03-26T06:35:30;8.20;99.90
10263;DHT22;5177;50.068;8.156;2023-03-26T06:37:56;8.20;99.90
10263;DHT22;5177;50.068;8.156;2023-03-26T06:40:22;8.20;99.90
10263;DHT22;5177;50.068;8.156;2023-03-26T06:42:48;8.20;99.90
10263;DHT22;5177;50.068;8.156;2023-03-26T06:45:13;8.20;99.90
10263;DHT22;5177;50.068;8.156;2023-03-26T06:47:39;8.20;99.90
10263;DHT22;5177;50.068;8.156;2023-03-26T06:50:05;8.20;99.90
10263;DHT22;5177;50.068;8.156;2023-03-26T06:52:30;8.30;99.90
10263;DHT22;5177;50.068;8.156;2023-03-26T06:54:56;8.20;99.90
10263;DHT22;5177;50.068;8.156;2023-03-26T06:57:22;8.20;99.90
10263;DHT22;5177;50.068;8.156;2023-03-26T06:59:47;8.30;99.90
10263;DHT22;5177;50.068;8.156;2023-03-26T07:02:13;8.30;99.90
10263;DHT22;5177;50.068;8.156;2023-03-26T07:04:38;8.30;99.90
10263;DHT22;5177;50.068;8.156;2023-03-26T07:07:04;8.30;99.90
10263;DHT22;5177;50.068;8.156;2023-03-26T07:09:30;8.30;99.90
10263;DHT22;5177;50.068;8.156;2023-03-26T07:11:56;8.30;99.90
10263;DHT22;5177;50.068;8.156;2023-03-26T07:14:22;8.30;99.90
10263;DHT22;5177;50.068;8.156;2023-03-26T07:16:49;8.30;99.90
10263;DHT22;5177;50.068;8.156;2023-03-26T07:19:14;8.30;99.90
10263;DHT22;5177;50.068;8.156;2023-03-26T07:21:40;8.30;99.90
10263;DHT22;5177;50.068;8.156;2023-03-26T07:24:08;8.30;99.90
10263;DHT22;5177;50.068;8.156;2023-03-26T07:29:14;8.30;99.90
10263;DHT22;5177;50.068;8.156;2023-03-26T07:31:44;8.30;99.90
10263;DHT22;5177;50.068;8.156;2023-03-26T07:37:20;8.30;99.90
10263;DHT22;5177;50.068;8.156;2023-03-26T07:39:51;8.30;99.90
10263;DHT22;5177;50.068;8.156;2023-03-26T07:45:20;8.30;99.90
10263;DHT22;5177;50.068;8.156;2023-03-26T07:47:48;8.20;99.90
10263;DHT22;5177;50.068;8.156;2023-03-26T07:50:15;8.20;99.90
10263;DHT22;5177;50.068;8.156;2023-03-26T07:52:41;8.20;99.90
10263;DHT22;5177;50.068;8.156;2023-03-26T07:55:07;8.30;99.90
10263;DHT22;5177;50.068;8.156;2023-03-26T08:00:23;8.30;99.90
10263;DHT22;5177;50.068;8.156;2023-03-26T08:05:15;8.30;99.90
10263;DHT22;5177;50.068;8.156;2023-03-26T08:10:29;8.30;99.90
10263;DHT22;5177;50.068;8.156;2023-03-26T08:13:18;8.20;99.90
10263;DHT22;5177;50.068;8.156;2023-03-26T08:15:56;8.20;99.90
10263;DHT22;5177;50.068;8.156;2023-03-26T08:21:09;8.30;99.90
10263;DHT22;5177;50.068;8.156;2023-03-26T08:23:46;8.30;99.90
10263;DHT22;5177;50.068;8.156;2023-03-26T08:29:32;8.30;99.90
10263;DHT22;5177;50.068;8.156;2023-03-26T08:31:38;8.30;99.90
10263;DHT22;5177;50.068;8.156;2023-03-26T08:34:07;8.30;99.90
10263;DHT22;5177;50.068;8.156;2023-03-26T08:36:33;8.20;99.90
10263;DHT22;5177;50.068;8.156;2023-03-26T08:38:59;8.20;99.90
10263;DHT22;5177;50.068;8.156;2023-03-26T08:54:31;8.30;99.90
10263;DHT22;5177;50.068;8.156;2023-03-26T08:57:46;8.40;99.90
10263;DHT22;5177;50.068;8.156;2023-03-26T09:10:30;8.60;99.90
10263;DHT22;5177;50.068;8.156;2023-03-26T09:20:40;8.70;99.90
10263;DHT22;5177;50.068;8.156;2023-03-26T09:46:12;9.40;99.90
10263;DHT22;5177;50.068;8.156;2023-03-26T09:54:00;9.30;99.90
10263;DHT22;5177;50.068;8.156;2023-03-26T10:29:57;10.70;99.90
10263;DHT22;5177;50.068;8.156;2023-03-26T10:35:40;10.80;99.90
10263;DHT22;5177;50.068;8.156;2023-03-26T10:43:16;10.70;99.90
10263;DHT22;5177;50.068;8.156;2023-03-26T10:56:11;10.50;99.90
10263;DHT22;5177;50.068;8.156;2023-03-26T10:58:40;10.50;99.90
10263;DHT22;5177;50.068;8.156;2023-03-26T11:03:46;10.50;99.90
10263;DHT22;5177;50.068;8.156;2023-03-26T11:09:02;11.30;99.90
10263;DHT22;5177;50.068;8.156;2023-03-26T11:20:01;13.00;99.90
10263;DHT22;5177;50.068;8.156;2023-03-26T11:22:35;13.00;99.90
10263;DHT22;5177;50.068;8.156;2023-03-26T11:30:26;13.60;99.90
10263;DHT22;5177;50.068;8.156;2023-03-26T11:32:54;13.70;99.90
10263;DHT22;5177;50.068;8.156;2023-03-26T11:37:52;13.80;99.90
10263;DHT22;5177;50.068;8.156;2023-03-26T11:40:22;13.80;99.90
10263;DHT22;5177;50.068;8.156;2023-03-26T11:42:50;13.80;99.90
10263;DHT22;5177;50.068;8.156;2023-03-26T11:45:19;13.60;99.90
10263;DHT22;5177;50.068;8.156;2023-03-26T11:47:47;13.30;99.90
10263;DHT22;5177;50.068;8.156;2023-03-26T11:50:15;13.10;99.90
10263;DHT22;5177;50.068;8.156;2023-03-26T11:52:42;12.70;99.90
10263;DHT22;5177;50.068;8.156;2023-03-26T11:55:11;12.50;99.90
10263;DHT22;5177;50.068;8.156;2023-03-26T11:57:37;12.30;99.90
10263;DHT22;5177;50.068;8.156;2023-03-26T12:00:06;12.50;99.90
10263;DHT22;5177;50.068;8.156;2023-03-26T12:02:42;12.90;99.90
10263;DHT22;5177;50.068;8.156;2023-03-26T12:05:15;13.30;99.90
10263;DHT22;5177;50.068;8.156;2023-03-26T12:07:46;13.60;99.90
10263;DHT22;5177;50.068;8.156;2023-03-26T12:10:32;13.80;99.90
10263;DHT22;5177;50.068;8.156;2023-03-26T12:13:04;14.20;99.90
10263;DHT22;5177;50.068;8.156;2023-03-26T12:15:31;14.10;99.90
10263;DHT22;5177;50.068;8.156;2023-03-26T12:17:57;13.90;99.90
10263;DHT22;5177;50.068;8.156;2023-03-26T12:22:52;13.30;99.90
10263;DHT22;5177;50.068;8.156;2023-03-26T12:25:24;13.30;99.90
10263;DHT22;5177;50.068;8.156;2023-03-26T12:27:57;13.20;99.90
10263;DHT22;5177;50.068;8.156;2023-03-26T12:30:27;13.40;99.90
10263;DHT22;5177;50.068;8.156;2023-03-26T12:32:56;13.70;99.90
10263;DHT22;5177;50.068;8.156;2023-03-26T12:35:26;14.20;99.90
10263;DHT22;5177;50.068;8.156;2023-03-26T12:37:55;14.50;99.90
10263;DHT22;5177;50.068;8.156;2023-03-26T12:40:29;14.30;99.90
10263;DHT22;5177;50.068;8.156;2023-03-26T12:42:57;14.30;99.90
10263;DHT22;5177;50.068;8.156;2023-03-26T12:45:30;14.00;99.90
10263;DHT22;5177;50.068;8.156;2023-03-26T12:47:56;14.00;99.90
10263;DHT22;5177;50.068;8.156;2023-03-26T12:50:25;14.30;99.90
10263;DHT22;5177;50.068;8.156;2023-03-26T12:52:55;14.90;1.00
10263;DHT22;5177;50.068;8.156;2023-03-26T12:55:41;15.30;1.00
10263;DHT22;5177;50.068;8.156;2023-03-26T13:00:54;15.30;1.00
10263;DHT22;5177;50.068;8.156;2023-03-26T13:05:59;14.90;99.90
10263;DHT22;5177;50.068;8.156;2023-03-26T13:18:50;14.00;99.90
10263;DHT22;5177;50.068;8.156;2023-03-26T13:31:31;13.00;1.00
10263;DHT22;5177;50.068;8.156;2023-03-26T13:37:01;12.80;1.00
10263;DHT22;5177;50.068;8.156;2023-03-26T13:47:34;13.60;99.90
10263;DHT22;5177;50.068;8.156;2023-03-26T13:50:02;13.60;92.10
10263;DHT22;5177;50.068;8.156;2023-03-26T13:55:10;13.70;1.00
10263;DHT22;5177;50.068;8.156;2023-03-26T13:57:50;13.80;36.40
10263;DHT22;5177;50.068;8.156;2023-03-26T14:00:18;14.10;31.20
10263;DHT22;5177;50.068;8.156;2023-03-26T14:02:57;14.60;3.90
10263;DHT22;5177;50.068;8.156;2023-03-26T14:05:38;15.10;1.00
10263;DHT22;5177;50.068;8.156;2023-03-26T14:08:12;15.10;1.00
10263;DHT22;5177;50.068;8.156;2023-03-26T14:10:39;15.00;99.90
10263;DHT22;5177;50.068;8.156;2023-03-26T14:16:34;15.00;1.00
10263;DHT22;5177;50.068;8.156;2023-03-26T14:19:00;14.60;1.00
10263;DHT22;5177;50.068;8.156;2023-03-26T14:24:18;14.50;99.90
10263;DHT22;5177;50.068;8.156;2023-03-26T14:45:18;16.40;99.90
10263;DHT22;5177;50.068;8.156;2023-03-26T14:47:49;15.80;1.00
10263;DHT22;5177;50.068;8.156;2023-03-26T14:52:51;15.30;1.00
10263;DHT22;5177;50.068;8.156;2023-03-26T14:55:35;15.30;1.00
10263;DHT22;5177;50.068;8.156;2023-03-26T15:00:48;14.90;99.90
10263;DHT22;5177;50.068;8.156;2023-03-26T15:06:02;14.90;1.00
10263;DHT22;5177;50.068;8.156;2023-03-26T15:21:41;13.80;1.00
10263;DHT22;5177;50.068;8.156;2023-03-26T15:24:15;13.50;1.00
10263;DHT22;5177;50.068;8.156;2023-03-26T15:40:21;11.20;1.00
10263;DHT22;5177;50.068;8.156;2023-03-26T15:42:54;10.60;9.60
10263;DHT22;5177;50.068;8.156;2023-03-26T15:45:36;10.20;85.50
10263;DHT22;5177;50.068;8.156;2023-03-26T15:48:06;9.90;99.90
10263;DHT22;5177;50.068;8.156;2023-03-26T15:53:16;9.60;99.90
10263;DHT22;5177;50.068;8.156;2023-03-26T15:58:49;9.40;99.90
10263;DHT22;5177;50.068;8.156;2023-03-26T16:06:51;9.40;99.90
10263;DHT22;5177;50.068;8.156;2023-03-26T16:09:23;9.40;99.90
10263;DHT22;5177;50.068;8.156;2023-03-26T16:11:52;9.40;99.90
10263;DHT22;5177;50.068;8.156;2023-03-26T16:14:20;9.50;99.90
10263;DHT22;5177;50.068;8.156;2023-03-26T16:16:51;9.40;99.90
10263;DHT22;5177;50.068;8.156;2023-03-26T16:21:56;9.50;99.90
10263;DHT22;5177;50.068;8.156;2023-03-26T16:24:25;9.70;99.90
10263;DHT22;5177;50.068;8.156;2023-03-26T16:34:27;10.00;99.90
10263;DHT22;5177;50.068;8.156;2023-03-26T16:36:57;10.10;99.90
10263;DHT22;5177;50.068;8.156;2023-03-26T16:39:24;10.10;83.10
10263;DHT22;5177;50.068;8.156;2023-03-26T16:42:03;10.00;77.00
10263;DHT22;5177;50.068;8.156;2023-03-26T16:44:43;10.00;91.50
10263;DHT22;5177;50.068;8.156;2023-03-26T16:47:26;9.90;82.40
10263;DHT22;5177;50.068;8.156;2023-03-26T16:50:12;9.90;42.60
10263;DHT22;5177;50.068;8.156;2023-03-26T17:00:21;9.80;26.20
10263;DHT22;5177;50.068;8.156;2023-03-26T17:02:55;9.70;53.80
10263;DHT22;5177;50.068;8.156;2023-03-26T17:05:35;9.60;77.90
10263;DHT22;5177;50.068;8.156;2023-03-26T17:10:58;9.60;99.40
10263;DHT22;5177;50.068;8.156;2023-03-26T17:13:27;9.60;99.90
10263;DHT22;5177;50.068;8.156;2023-03-26T17:18:31;9.60;92.00
10263;DHT22;5177;50.068;8.156;2023-03-26T17:24:09;9.60;95.70
10263;DHT22;5177;50.068;8.156;2023-03-26T17:26:23;9.50;99.90
10263;DHT22;5177;50.068;8.156;2023-03-26T17:29:09;9.50;99.90
10263;DHT22;5177;50.068;8.156;2023-03-26T17:31:42;9.50;99.90
10263;DHT22;5177;50.068;8.156;2023-03-26T17:36:55;9.50;99.90
10263;DHT22;5177;50.068;8.156;2023-03-26T17:42:25;9.30;99.90
10263;DHT22;5177;50.068;8.156;2023-03-26T17:45:07;9.40;99.90
10263;DHT22;5177;50.068;8.156;2023-03-26T17:47:34;9.40;99.90
10263;DHT22;5177;50.068;8.156;2023-03-26T17:50:12;9.40;99.90
10263;DHT22;5177;50.068;8.156;2023-03-26T17:52:46;9.30;99.90
10263;DHT22;5177;50.068;8.156;2023-03-26T17:55:15;9.40;99.90
10263;DHT22;5177;50.068;8.156;2023-03-26T17:57:46;9.30;99.90
10263;DHT22;5177;50.068;8.156;2023-03-26T18:00:39;9.30;99.90
10263;DHT22;5177;50.068;8.156;2023-03-26T18:03:05;9.30;99.90
10263;DHT22;5177;50.068;8.156;2023-03-26T18:05:36;9.30;99.90
10263;DHT22;5177;50.068;8.156;2023-03-26T18:08:08;9.30;99.90
10263;DHT22;5177;50.068;8.156;2023-03-26T18:10:41;9.30;99.90
10263;DHT22;5177;50.068;8.156;2023-03-26T18:13:30;9.30;99.90
10263;DHT22;5177;50.068;8.156;2023-03-26T18:16:12;9.30;99.90
10263;DHT22;5177;50.068;8.156;2023-03-26T18:21:19;9.10;99.90
10263;DHT22;5177;50.068;8.156;2023-03-26T18:23:47;9.20;99.90
10263;DHT22;5177;50.068;8.156;2023-03-26T18:26:18;9.20;99.90
10263;DHT22;5177;50.068;8.156;2023-03-26T18:28:53;9.20;99.90
10263;DHT22;5177;50.068;8.156;2023-03-26T18:31:29;9.20;99.90
10263;DHT22;5177;50.068;8.156;2023-03-26T18:33:57;9.20;99.90
10263;DHT22;5177;50.068;8.156;2023-03-26T18:36:27;9.20;99.90
10263;DHT22;5177;50.068;8.156;2023-03-26T18:38:58;9.20;99.90
10263;DHT22;5177;50.068;8.156;2023-03-26T18:43:55;9.10;99.90
10263;DHT22;5177;50.068;8.156;2023-03-26T18:46:25;9.10;99.90
10263;DHT22;5177;50.068;8.156;2023-03-26T18:48:51;9.10;99.90
10263;DHT22;5177;50.068;8.156;2023-03-26T18:51:19;9.10;99.90
10263;DHT22;5177;50.068;8.156;2023-03-26T18:54:05;9.00;99.90
10263;DHT22;5177;50.068;8.156;2023-03-26T18:56:35;9.00;99.90
10263;DHT22;5177;50.068;8.156;2023-03-26T18:59:02;9.00;99.90
10263;DHT22;5177;50.068;8.156;2023-03-26T19:01:29;9.00;99.90
10263;DHT22;5177;50.068;8.156;2023-03-26T19:03:58;9.00;99.90
10263;DHT22;5177;50.068;8.156;2023-03-26T19:06:33;9.00;99.90
10263;DHT22;5177;50.068;8.156;2023-03-26T19:09:03;9.00;99.90
10263;DHT22;5177;50.068;8.156;2023-03-26T19:11:30;9.00;99.90
10263;DHT22;5177;50.068;8.156;2023-03-26T19:14:02;9.00;99.90
10263;DHT22;5177;50.068;8.156;2023-03-26T19:16:31;9.00;99.90
10263;DHT22;5177;50.068;8.156;2023-03-26T19:19:03;9.00;99.90
10263;DHT22;5177;50.068;8.156;2023-03-26T19:21:30;8.90;99.90
10263;DHT22;5177;50.068;8.156;2023-03-26T19:23:56;8.90;99.90
10263;DHT22;5177;50.068;8.156;2023-03-26T19:26:21;8.90;99.90
10263;DHT22;5177;50.068;8.156;2023-03-26T19:28:48;8.90;99.90
10263;DHT22;5177;50.068;8.156;2023-03-26T19:31:22;9.00;99.90
10263;DHT22;5177;50.068;8.156;2023-03-26T19:33:53;9.00;99.90
10263;DHT22;5177;50.068;8.156;2023-03-26T19:36:19;9.10;99.90
10263;DHT22;5177;50.068;8.156;2023-03-26T19:38:51;9.00;99.90
10263;DHT22;5177;50.068;8.156;2023-03-26T19:41:18;9.00;99.90
10263;DHT22;5177;50.068;8.156;2023-03-26T19:43:48;9.00;99.90
10263;DHT22;5177;50.068;8.156;2023-03-26T19:46:15;9.00;99.90
10263;DHT22;5177;50.068;8.156;2023-03-26T19:48:40;9.00;99.90
10263;DHT22;5177;50.068;8.156;2023-03-26T19:51:13;9.00;99.90
10263;DHT22;5177;50.068;8.156;2023-03-26T19:53:42;9.00;99.90
10263;DHT22;5177;50.068;8.156;2023-03-26T19:56:11;9.00;99.90
10263;DHT22;5177;50.068;8.156;2023-03-26T19:58:39;8.90;99.90
10263;DHT22;5177;50.068;8.156;2023-03-26T20:01:05;8.90;99.90
10263;DHT22;5177;50.068;8.156;2023-03-26T20:03:36;8.90;99.90
10263;DHT22;5177;50.068;8.156;2023-03-26T20:06:02;8.90;99.90
10263;DHT22;5177;50.068;8.156;2023-03-26T20:08:27;8.80;99.90
10263;DHT22;5177;50.068;8.156;2023-03-26T20:10:54;8.80;99.90
10263;DHT22;5177;50.068;8.156;2023-03-26T20:13:19;8.80;99.90
10263;DHT22;5177;50.068;8.156;2023-03-26T20:15:51;8.80;99.90
10263;DHT22;5177;50.068;8.156;2023-03-26T20:18:17;8.80;99.90
10263;DHT22;5177;50.068;8.156;2023-03-26T20:20:43;8.70;99.90
10263;DHT22;5177;50.068;8.156;2023-03-26T20:23:09;8.70;99.90
10263;DHT22;5177;50.068;8.156;2023-03-26T20:25:40;8.60;99.90
10263;DHT22;5177;50.068;8.156;2023-03-26T20:28:11;8.60;99.90
10263;DHT22;5177;50.068;8.156;2023-03-26T20:30:37;8.50;99.90
10263;DHT22;5177;50.068;8.156;2023-03-26T20:33:03;8.80;99.90
10263;DHT22;5177;50.068;8.156;2023-03-26T20:35:30;8.70;99.90
10263;DHT22;5177;50.068;8.156;2023-03-26T20:37:56;8.70;99.90
10263;DHT22;5177;50.068;8.156;2023-03-26T20:40:21;8.70;99.90
10263;DHT22;5177;50.068;8.156;2023-03-26T20:42:47;8.80;99.90
10263;DHT22;5177;50.068;8.156;2023-03-26T20:45:14;8.70;99.90
10263;DHT22;5177;50.068;8.156;2023-03-26T20:47:42;8.70;99.90
10263;DHT22;5177;50.068;8.156;2023-03-26T20:50:09;8.70;99.90
10263;DHT22;5177;50.068;8.156;2023-03-26T20:52:34;8.80;99.90
10263;DHT22;5177;50.068;8.156;2023-03-26T20:55:00;8.80;99.90
10263;DHT22;5177;50.068;8.156;2023-03-26T20:57:25;8.90;99.90
10263;DHT22;5177;50.068;8.156;2023-03-26T20:59:51;8.70;99.90
10263;DHT22;5177;50.068;8.156;2023-03-26T21:02:18;8.70;99.90
10263;DHT22;5177;50.068;8.156;2023-03-26T21:04:44;8.80;99.90
10263;DHT22;5177;50.068;8.156;2023-03-26T21:07:11;8.70;99.90
10263;DHT22;5177;50.068;8.156;2023-03-26T21:09:37;8.70;99.90
10263;DHT22;5177;50.068;8.156;2023-03-26T21:12:04;8.70;99.90
10263;DHT22;5177;50.068;8.156;2023-03-26T21:14:34;8.60;99.90
10263;DHT22;5177;50.068;8.156;2023-03-26T21:17:07;8.60;99.90
10263;DHT22;5177;50.068;8.156;2023-03-26T21:19:36;8.60;99.90
10263;DHT22;5177;50.068;8.156;2023-03-26T21:22:08;8.60;99.90
10263;DHT22;5177;50.068;8.156;2023-03-26T21:29:47;8.50;99.90
10263;DHT22;5177;50.068;8.156;2023-03-26T21:32:12;8.50;99.90
10263;DHT22;5177;50.068;8.156;2023-03-26T21:34:39;8.50;99.90
10263;DHT22;5177;50.068;8.156;2023-03-26T21:37:04;8.40;99.90
10263;DHT22;5177;50.068;8.156;2023-03-26T21:39:31;8.40;99.90
10263;DHT22;5177;50.068;8.156;2023-03-26T21:41:57;8.40;99.90
10263;DHT22;5177;50.068;8.156;2023-03-26T21:44:22;8.40;99.90
10263;DHT22;5177;50.068;8.156;2023-03-26T21:46:48;8.40;99.90